Time;durP1;ratioP1;P1;durP2;ratioP2;P2;SDS_P1;SDS_P2;PMS_P1;PMS_P2;Temp;Humidity;BMP_temperature;BMP_pressure;BME280_temperature;BME280_humidity;BME280_pressure;Samples;Min_cycle;Max_cycle;Signal;HPM_P1;HPM_P2
2023/01/11 00:02:02;;;;;;;;;31.75;27.00;;;;;8.04;76.83;100303.88;146602;571;46034;-68
2023/01/11 00:05:02;;;;;;;;;35.75;32.50;;;;;8.17;76.48;100309.69;146608;625;45020;-68
2023/01/11 00:07:59;;;;;;;;;27.50;25.75;;;;;8.25;75.85;100311.84;146603;593;46013;-69
2023/01/11 00:10:52;;;;;;;;;29.25;27.25;;;;;8.31;75.76;100319.94;146604;602;46010;-69
2023/01/11 00:14:05;;;;;;;;;23.50;20.50;;;;;5.37;74.63;99792.56;146601;596;46038;-69
2023/01/11 00:17:13;;;;;;;;;22.75;18.25;;;;;8.51;75.50;100325.34;146605;586;46020;-70
2023/01/11 00:20:12;;;;;;;;;14.25;11.50;;;;;8.62;75.58;100331.94;146602;571;46016;-69
2023/01/11 00:23:08;;;;;;;;;28.25;23.50;;;;;8.76;75.02;100330.97;146606;698;46021;-70
2023/01/11 00:26:22;;;;;;;;;14.00;11.50;;;;;5.88;74.39;99810.00;146601;595;46016;-70
2023/01/11 00:29:38;;;;;;;;;9.00;8.00;;;;;6.06;73.07;99815.31;146606;580;46011;-71
2023/01/11 00:32:32;;;;;;;;;5.00;3.75;;;;;9.17;74.06;100332.22;146603;582;46012;-70
2023/01/11 00:35:36;;;;;;;;;5.00;3.75;;;;;9.26;73.09;100334.38;146604;592;46020;-70
2023/01/11 00:38:53;;;;;;;;;;;;;;;;;;;;;
2023/01/11 00:48:51;;;;;;;;;0.75;0.00;;;;;9.56;71.13;100332.37;146606;665;46010;-69
2023/01/11 00:51:53;;;;;;;;;1.00;1.00;;;;;6.68;69.57;99820.34;146603;725;46013;-69
2023/01/11 00:54:47;;;;;;;;;3.25;2.00;;;;;9.74;70.30;100337.59;146605;579;46020;-70
2023/01/11 00:57:40;;;;;;;;;4.00;3.00;;;;;9.82;71.83;100330.19;146603;587;46036;-69
2023/01/11 01:00:40;;;;;;;;;2.50;2.00;;;;;9.82;71.92;100325.03;146604;579;46020;-69
2023/01/11 01:03:35;;;;;;;;;1.00;1.00;;;;;9.79;72.21;100330.06;146602;685;46016;-69
2023/01/11 01:06:34;;;;;;;;;0.25;0.25;;;;;9.80;70.88;100334.41;146606;580;46030;-70
2023/01/11 01:09:35;;;;;;;;;1.00;0.50;;;;;9.83;70.23;100345.78;146602;584;46016;-71
2023/01/11 01:16:01;;;;;;;;;33.50;27.50;;;;;9.90;69.41;100350.44;146602;599;46914;-70
2023/01/11 01:18:59;;;;;;;;;8.00;6.00;;;;;9.92;69.50;100351.41;146606;702;46020;-70
2023/01/11 01:22:06;;;;;;;;;3.00;3.00;;;;;9.93;69.27;100357.47;146605;681;46017;-70
2023/01/11 01:25:21;;;;;;;;;15.75;13.00;;;;;9.95;69.39;100356.75;146608;630;46010;-70
2023/01/11 01:28:14;;;;;;;;;8.00;8.00;;;;;9.98;69.74;100353.41;146606;579;46017;-71
2023/01/11 01:31:12;;;;;;;;;5.25;4.00;;;;;9.98;69.49;100363.78;146606;574;46010;-70
2023/01/11 01:34:16;;;;;;;;;3.00;3.00;;;;;7.16;69.06;99867.50;146607;595;46012;-70
2023/01/11 01:37:13;;;;;;;;;6.00;6.00;;;;;10.03;69.20;100364.91;146608;647;46021;-72
2023/01/11 01:40:21;;;;;;;;;5.00;3.75;;;;;10.05;68.84;100354.59;146603;563;46016;-72
2023/01/11 01:43:40;;;;;;;;;5.00;5.00;;;;;10.05;68.01;100359.78;146605;582;48010;-72
2023/01/11 01:46:42;;;;;;;;;6.25;4.75;;;;;10.09;67.73;100362.59;146607;632;46916;-73
2023/01/11 01:49:41;;;;;;;;;1.75;1.75;;;;;10.12;67.54;100352.37;146620;612;46021;-72
2023/01/11 01:52:36;;;;;;;;;0.25;0.00;;;;;10.17;67.28;100357.75;146606;585;46919;-73
2023/01/11 01:55:45;;;;;;;;;2.50;2.50;;;;;10.20;66.79;100369.97;146607;654;46031;-73
2023/01/11 01:58:54;;;;;;;;;1.50;1.50;;;;;10.20;67.35;100377.75;146605;584;47012;-72
2023/01/11 02:01:59;;;;;;;;;;;;;;;;;;;;;
2023/01/11 02:05:01;;;;;;;;;3.25;3.25;;;;;10.18;67.69;100368.19;146604;664;46016;-73
2023/01/11 02:08:00;;;;;;;;;5.50;5.50;;;;;10.24;68.75;100375.34;146604;603;46020;-72
2023/01/11 02:11:07;;;;;;;;;5.50;4.25;;;;;10.26;68.64;100380.63;146606;634;46012;-73
2023/01/11 02:14:19;;;;;;;;;6.25;5.00;;;;;10.26;68.34;100391.91;146606;593;46010;-73
2023/01/11 02:17:24;;;;;;;;;;;;;;;;;;;;;
2023/01/11 02:20:52;;;;;;;;;14.00;11.00;;;;;10.27;68.86;100385.91;146608;596;46021;-72
2023/01/11 02:24:27;;;;;;;;;29.00;25.50;;;;;7.47;68.88;99906.84;146604;622;46030;-70
2023/01/11 02:27:56;;;;;;;;;25.50;24.75;;;;;6.92;68.81;99813.00;146609;579;46012;-78
2023/01/11 02:31:23;;;;;;;;;4.00;4.00;;;;;10.36;69.50;100398.41;146605;578;46917;-73
2023/01/11 02:35:01;;;;;;;;;5.00;5.00;;;;;6.49;68.79;99719.75;146605;574;46020;-72
2023/01/11 02:38:17;;;;;;;;;9.25;6.25;;;;;10.40;69.98;100402.91;146600;569;46012;-69
2023/01/11 02:45:54;;;;;;;;;6.00;4.25;;;;;7.81;68.89;99946.41;146607;636;46034;-68
2023/01/11 02:49:28;;;;;;;;;6.00;5.00;;;;;10.50;69.18;100412.91;146606;595;46024;-69
2023/01/11 02:52:50;;;;;;;;;;;;;;;;;;;;;
2023/01/11 02:56:02;;;;;;;;;;;;;;;;;;;;;
2023/01/11 02:59:13;;;;;;;;;7.75;5.25;;;;;10.49;70.89;100400.75;146604;582;46017;-70
2023/01/11 03:02:10;;;;;;;;;6.00;4.00;;;;;10.49;70.75;100405.03;146607;628;46010;-70
2023/01/11 03:05:15;;;;;;;;;5.00;4.00;;;;;10.49;71.64;100403.34;146605;702;46014;-68
2023/01/11 03:08:46;;;;;;;;;5.00;4.50;;;;;10.46;71.22;100410.97;146605;573;46010;-68
2023/01/11 03:16:08;;;;;;;;;6.50;4.50;;;;;10.37;71.73;100413.13;146607;593;46010;-68
2023/01/11 03:19:43;;;;;;;;;5.25;4.25;;;;;10.28;71.26;100417.88;146604;564;46017;-70
2023/01/11 03:23:27;;;;;;;;;6.25;4.50;;;;;7.71;71.19;99988.06;146604;565;46020;-71
2023/01/11 03:27:06;;;;;;;;;5.25;4.00;;;;;7.36;71.45;99932.09;146602;707;46016;-70
2023/01/11 03:30:37;;;;;;;;;10.50;9.25;;;;;7.23;72.83;99911.63;146605;616;46020;-71
2023/01/11 03:34:16;;;;;;;;;10.00;6.50;;;;;10.08;73.91;100430.75;146606;733;46016;-68
2023/01/11 03:37:36;;;;;;;;;24.25;17.25;;;;;9.99;74.32;100429.41;146605;612;46020;-69
2023/01/11 03:41:07;;;;;;;;;4.00;2.25;;;;;7.01;73.68;99959.50;146603;569;46016;-68
2023/01/11 03:44:33;;;;;;;;;3.00;3.00;;;;;6.92;73.31;99935.81;146604;672;46021;-68
2023/01/11 03:47:31;;;;;;;;;3.00;3.00;;;;;9.82;74.37;100446.72;146603;575;46016;-70
2023/01/11 03:50:36;;;;;;;;;4.50;3.00;;;;;9.78;73.93;100442.19;146605;613;46020;-71
2023/01/11 03:53:52;;;;;;;;;2.00;2.00;;;;;9.75;73.62;100448.13;146602;631;46016;-71
2023/01/11 03:57:16;;;;;;;;;2.50;2.50;;;;;9.73;73.35;100454.91;146605;652;46020;-71
2023/01/11 04:00:23;;;;;;;;;3.25;3.00;;;;;9.71;73.58;100460.00;146602;574;46016;-71
2023/01/11 04:03:17;;;;;;;;;3.00;3.00;;;;;9.69;73.42;100455.59;146605;572;47010;-71
2023/01/11 04:06:24;;;;;;;;;3.00;3.00;;;;;9.67;73.45;100465.84;146604;583;46017;-70
2023/01/11 04:09:25;;;;;;;;;3.50;3.25;;;;;9.67;73.20;100459.78;146603;636;46033;-75
2023/01/11 04:12:23;;;;;;;;;5.50;3.00;;;;;9.65;73.76;100461.41;146604;631;46017;-76
2023/01/11 04:15:24;;;;;;;;;6.00;4.00;;;;;9.62;73.21;100453.47;146605;563;46010;-76
2023/01/11 04:18:37;;;;;;;;;11.50;9.75;;;;;9.60;72.97;100456.00;146604;680;46016;-76
2023/01/11 04:21:31;;;;;;;;;9.25;8.50;;;;;9.61;73.78;100452.59;146606;599;46012;-76
2023/01/11 04:24:54;;;;;;;;;;;;;;;;;;;;;
2023/01/11 04:28:02;;;;;;;;;3.50;3.50;;;;;9.62;73.29;100458.66;146603;729;46021;-70
2023/01/11 04:31:01;;;;;;;;;4.25;3.00;;;;;9.61;72.63;100469.81;146604;604;46016;-68
2023/01/11 04:34:11;;;;;;;;;9.00;7.00;;;;;9.63;72.32;100463.94;146605;613;46021;-69
2023/01/11 04:37:10;;;;;;;;;6.00;4.00;;;;;9.68;71.92;100474.50;146603;596;46919;-68
2023/01/11 04:40:08;;;;;;;;;4.00;4.00;;;;;9.70;71.96;100480.66;146606;652;46020;-68
2023/01/11 04:43:01;;;;;;;;;5.75;5.00;;;;;9.70;71.75;100484.13;146602;693;46012;-72
2023/01/11 04:45:54;;;;;;;;;6.00;5.50;;;;;9.69;71.73;100486.66;146604;655;46012;-74
2023/01/11 04:48:48;;;;;;;;;5.75;4.25;;;;;9.69;71.75;100492.72;146604;640;46016;-74
2023/01/11 04:51:47;;;;;;;;;6.00;4.50;;;;;9.71;71.43;100504.00;146605;610;47010;-71
2023/01/11 04:54:39;;;;;;;;;5.00;3.00;;;;;9.71;71.51;100504.00;146609;570;46012;-70
2023/01/11 04:57:46;;;;;;;;;6.00;6.00;;;;;9.74;71.02;100517.94;146607;645;46020;-73
2023/01/11 05:00:44;;;;;;;;;4.00;4.00;;;;;9.75;71.71;100512.84;146603;597;46918;-71
2023/01/11 05:03:41;;;;;;;;;3.00;3.00;;;;;9.74;71.72;100518.81;146609;571;46021;-73
2023/01/11 05:06:40;;;;;;;;;5.75;3.50;;;;;9.75;71.60;100527.47;146606;563;45016;-73
2023/01/11 05:09:39;;;;;;;;;3.50;2.50;;;;;9.71;72.18;100527.31;146610;573;46010;-76
2023/01/11 05:12:46;;;;;;;;;4.00;4.00;;;;;9.71;71.91;100534.19;146603;667;46016;-75
2023/01/11 05:15:40;;;;;;;;;4.50;3.25;;;;;9.66;72.40;100538.28;146603;624;46020;-75
2023/01/11 05:18:36;;;;;;;;;2.00;2.00;;;;;9.62;73.09;100541.50;146604;674;46014;-73
2023/01/11 05:21:42;;;;;;;;;2.50;2.00;;;;;9.56;73.02;100531.69;146606;618;46020;-73
2023/01/11 05:24:47;;;;;;;;;3.75;2.75;;;;;9.57;72.82;100548.16;146603;610;46015;-73
2023/01/11 05:27:55;;;;;;;;;6.00;4.00;;;;;9.54;72.60;100545.41;146604;583;46020;-71
2023/01/11 05:30:47;;;;;;;;;5.50;4.50;;;;;9.52;72.65;100549.59;146601;581;46016;-70
2023/01/11 05:33:50;;;;;;;;;5.50;5.00;;;;;9.43;72.48;100535.34;146605;579;46020;-73
2023/01/11 05:36:46;;;;;;;;;7.75;5.50;;;;;9.45;73.59;100545.78;146603;584;46016;-73
2023/01/11 05:39:44;;;;;;;;;7.25;7.00;;;;;9.38;74.22;100546.28;146605;637;46020;-73
2023/01/11 05:42:46;;;;;;;;;7.00;5.75;;;;;9.31;74.02;100554.50;146603;565;46016;-73
2023/01/11 05:45:55;;;;;;;;;9.25;4.00;;;;;9.27;73.92;100558.63;146606;600;46020;-72
2023/01/11 05:49:09;;;;;;;;;;;;;;;;;;;;;
2023/01/11 05:52:07;;;;;;;;;9.25;8.00;;;;;9.23;73.53;100578.28;146605;581;47012;-74
2023/01/11 05:55:11;;;;;;;;;6.50;6.25;;;;;9.23;74.28;100577.41;146601;590;46918;-73
2023/01/11 05:58:15;;;;;;;;;13.75;10.25;;;;;9.20;74.78;100578.12;146607;614;46020;-76
2023/01/11 06:01:12;;;;;;;;;13.00;13.00;;;;;9.19;74.47;100583.19;146603;597;46016;-74
2023/01/11 06:04:20;;;;;;;;;7.50;6.75;;;;;9.19;74.86;100583.19;146604;628;46020;-76
2023/01/11 06:07:13;;;;;;;;;14.50;11.75;;;;;9.18;75.00;100579.72;146603;583;46012;-72
2023/01/11 06:10:09;;;;;;;;;11.00;9.75;;;;;9.22;74.36;100592.03;146605;626;46012;-71
2023/01/11 06:16:32;;;;;;;;;11.25;8.75;;;;;9.33;73.07;100600.38;146603;563;46012;-73
2023/01/11 06:19:35;;;;;;;;;11.25;8.50;;;;;9.44;72.94;100603.56;146605;683;46919;-72
2023/01/11 06:22:45;;;;;;;;;8.00;6.25;;;;;6.77;71.48;100121.41;146609;591;46010;-73
2023/01/11 06:25:39;;;;;;;;;10.25;8.25;;;;;9.64;72.23;100607.19;146604;650;46012;-73
2023/01/11 06:28:41;;;;;;;;;10.25;8.25;;;;;9.76;72.14;100614.72;146609;620;46012;-74
2023/01/11 06:31:46;;;;;;;;;13.00;9.75;;;;;9.89;71.71;100619.72;146606;617;46016;-73
2023/01/11 06:34:45;;;;;;;;;15.25;14.00;;;;;10.16;73.87;100626.34;146608;619;46010;-74
2023/01/11 06:37:51;;;;;;;;;11.50;11.00;;;;;8.26;71.90;100156.09;146606;670;46016;-74
2023/01/11 06:41:04;;;;;;;;;11.75;9.50;;;;;12.09;71.62;100633.78;146609;566;46021;-74
2023/01/11 06:44:06;;;;;;;;;11.50;10.00;;;;;13.37;66.16;100640.81;146605;597;46016;-75
2023/01/11 06:47:04;;;;;;;;;9.75;8.25;;;;;14.50;64.29;100641.41;146606;592;46021;-74
2023/01/11 06:49:56;;;;;;;;;12.25;11.00;;;;;15.33;57.20;100639.78;146603;579;46016;-74
2023/01/11 06:53:07;;;;;;;;;16.75;16.00;;;;;15.64;57.57;100646.81;146608;587;46010;-74
2023/01/11 06:56:07;;;;;;;;;15.25;14.00;;;;;15.94;54.37;100648.56;146604;588;46012;-74
2023/01/11 06:59:13;;;;;;;;;7.50;4.50;;;;;13.60;53.94;100211.81;146609;693;46010;-74
2023/01/11 07:02:16;;;;;;;;;6.75;6.75;;;;;16.00;51.67;100658.31;146607;584;46014;-71
2023/01/11 07:05:39;;;;;;;;;8.25;7.75;;;;;12.89;54.73;100211.22;146608;600;46020;-70
2023/01/11 07:08:35;;;;;;;;;10.25;8.25;;;;;14.93;53.79;100663.75;146603;617;48015;-69
2023/01/11 07:11:33;;;;;;;;;8.50;7.00;;;;;14.44;54.09;100670.78;146608;612;46020;-72
2023/01/11 07:14:28;;;;;;;;;7.50;7.50;;;;;13.96;55.37;100667.34;146606;626;46035;-74
2023/01/11 07:17:32;;;;;;;;;11.75;9.75;;;;;13.53;56.59;100668.31;146606;608;46028;-70
2023/01/11 07:20:30;;;;;;;;;13.00;10.00;;;;;13.14;57.73;100676.31;146599;575;46016;-71
2023/01/11 07:23:28;;;;;;;;;9.00;7.75;;;;;12.73;57.50;100682.44;146603;635;46477;-70
2023/01/11 07:26:40;;;;;;;;;13.75;11.00;;;;;12.41;57.56;100682.84;146605;579;46014;-70
2023/01/11 07:29:38;;;;;;;;;12.00;10.75;;;;;12.14;59.75;100692.03;146610;600;45020;-70
2023/01/11 07:32:41;;;;;;;;;14.00;12.25;;;;;11.99;61.93;100690.53;146607;569;46017;-70
2023/01/11 07:35:37;;;;;;;;;12.75;10.75;;;;;11.88;63.04;100696.97;146605;635;46020;-70
2023/01/11 07:38:41;;;;;;;;;14.00;11.00;;;;;11.86;63.28;100692.50;146605;676;46017;-70
2023/01/11 07:44:58;;;;;;;;;;;;;;;;;;;;;
2023/01/11 07:48:00;;;;;;;;;3.75;2.25;;;;;11.94;53.10;100698.94;146608;573;46010;-70
2023/01/11 07:51:01;;;;;;;;;2.25;2.25;;;;;11.96;55.71;100700.81;146604;692;46016;-70
2023/01/11 07:54:03;;;;;;;;;3.00;3.00;;;;;12.02;55.32;100706.28;146608;583;46010;-70
2023/01/11 07:57:00;;;;;;;;;3.50;3.50;;;;;12.08;56.22;100710.84;146606;572;46012;-68
2023/01/11 08:00:05;;;;;;;;;6.25;5.50;;;;;12.16;54.22;100706.00;146607;613;46020;-71
2023/01/11 08:02:58;;;;;;;;;3.75;2.75;;;;;12.21;53.92;100710.59;146604;665;47012;-71
2023/01/11 08:06:04;;;;;;;;;1.50;0.50;;;;;12.21;52.04;100704.47;146606;710;46020;-71
2023/01/11 08:09:05;;;;;;;;;1.50;0.75;;;;;12.19;52.93;100699.22;146606;668;46017;-71
2023/01/11 08:15:09;;;;;;;;;1.75;1.75;;;;;12.51;53.25;100722.25;146605;624;46018;-71
2023/01/11 08:18:12;;;;;;;;;2.75;2.50;;;;;12.82;53.21;100725.34;146607;629;46020;-70
2023/01/11 08:21:07;;;;;;;;;2.00;2.00;;;;;13.04;50.94;100728.81;146604;658;46016;-72
2023/01/11 08:24:22;;;;;;;;;0.50;0.50;;;;;10.54;51.39;100253.19;146607;613;47011;-71
2023/01/11 08:27:15;;;;;;;;;3.00;2.25;;;;;13.38;50.05;100734.59;146605;580;46036;-72
2023/01/11 08:30:16;;;;;;;;;2.75;1.75;;;;;13.33;49.15;100730.03;146608;722;47010;-72
2023/01/11 08:33:14;;;;;;;;;3.25;3.25;;;;;13.28;51.56;100739.41;146607;574;46017;-71
2023/01/11 08:36:26;;;;;;;;;3.00;3.00;;;;;13.34;53.39;100735.31;146605;643;47020;-72
2023/01/11 08:39:32;;;;;;;;;2.00;2.00;;;;;13.47;50.94;100741.91;146607;571;46016;-70
2023/01/11 08:42:35;;;;;;;;;2.50;2.50;;;;;13.52;51.65;100736.84;146608;646;47010;-70
2023/01/11 08:45:40;;;;;;;;;1.00;1.00;;;;;13.28;48.69;100708.16;146606;665;46017;-71
2023/01/11 08:48:48;;;;;;;;;;;;;;;;;;;;;
2023/01/11 08:51:45;;;;;;;;;0.00;0.00;;;;;13.37;49.96;100761.50;146602;649;46916;-68
2023/01/11 08:54:40;;;;;;;;;3.00;2.00;;;;;13.30;49.78;100759.47;146603;684;46021;-70
2023/01/11 08:57:37;;;;;;;;;2.25;1.75;;;;;13.22;50.13;100737.41;146607;706;46016;-71
2023/01/11 09:00:34;;;;;;;;;2.75;2.00;;;;;13.14;49.63;100755.28;146607;696;46021;-73
2023/01/11 09:03:36;;;;;;;;;0.50;0.50;;;;;13.13;50.49;100739.63;146605;624;46012;-70
2023/01/11 09:06:40;;;;;;;;;0.00;0.00;;;;;13.23;48.97;100741.75;146606;572;46020;-73
2023/01/11 09:09:38;;;;;;;;;4.25;2.00;;;;;13.52;50.92;100736.84;146605;655;46016;-71
2023/01/11 09:12:31;;;;;;;;;1.00;1.00;;;;;13.85;48.28;100730.34;146610;573;46010;-71
2023/01/11 09:15:36;;;;;;;;;2.00;1.00;;;;;14.06;49.78;100726.78;146606;596;46016;-71
2023/01/11 09:18:37;;;;;;;;;2.00;1.00;;;;;14.06;47.56;100732.88;146607;569;45020;-71
2023/01/11 09:21:33;;;;;;;;;0.67;0.67;;;;;13.96;46.75;100707.31;146607;613;46919;-70
2023/01/11 09:24:45;;;;;;;;;1.67;0.67;;;;;13.80;47.13;100718.87;146609;650;46010;-71
2023/01/11 09:27:41;;;;;;;;;1.00;0.33;;;;;13.65;47.33;100718.31;146606;616;46016;-70
2023/01/11 09:30:38;;;;;;;;;1.00;1.00;;;;;13.57;49.91;100711.87;146608;570;46020;-71
2023/01/11 09:33:30;;;;;;;;;11.25;9.25;;;;;13.55;48.16;100717.06;146606;570;46012;-71
2023/01/11 09:36:25;;;;;;;;;5.50;5.50;;;;;13.54;48.13;100709.16;146606;571;46020;-71
2023/01/11 09:39:26;;;;;;;;;18.75;17.25;;;;;13.55;48.68;100716.13;146606;594;46016;-71
2023/01/11 09:42:41;;;;;;;;;10.75;9.50;;;;;13.27;48.37;100668.22;146607;654;46020;-72
2023/01/11 09:45:45;;;;;;;;;10.25;9.25;;;;;13.54;49.07;100715.25;146606;581;46016;-71
2023/01/11 09:48:58;;;;;;;;;5.25;4.00;;;;;13.57;49.36;100717.09;146603;571;48010;-71
2023/01/11 09:52:50;;;;;;;;;5.50;3.00;;;;;13.71;51.66;100721.13;146607;676;46012;-72
2023/01/11 09:56:03;;;;;;;;;23.50;21.00;;;;;13.94;50.76;100722.00;146607;613;46020;-72
2023/01/11 09:59:28;;;;;;;;;13.50;11.50;;;;;14.14;50.01;100711.41;146604;569;46035;-72
2023/01/11 10:03:05;;;;;;;;;5.00;4.25;;;;;11.64;51.61;100256.91;146610;617;45020;-72
2023/01/11 10:07:00;;;;;;;;;3.75;3.75;;;;;11.85;53.14;100275.94;146607;641;46012;-72
2023/01/11 10:10:28;;;;;;;;;9.00;6.75;;;;;14.49;50.74;100720.53;146605;639;46020;-71
2023/01/11 10:13:56;;;;;;;;;4.00;4.00;;;;;14.54;49.62;100713.75;146604;648;46016;-72
2023/01/11 10:17:31;;;;;;;;;9.00;8.00;;;;;14.59;50.50;100712.22;146608;569;46010;-72
2023/01/11 10:20:42;;;;;;;;;3.75;3.75;;;;;14.63;49.95;100703.66;146605;589;46016;-71
2023/01/11 10:24:23;;;;;;;;;9.25;9.00;;;;;11.95;45.36;100248.59;146605;585;46012;-71
2023/01/11 10:27:55;;;;;;;;;;;;;;;;;;;;;
2023/01/11 10:31:10;;;;;;;;;6.50;5.75;;;;;14.33;49.68;100708.66;146610;685;46010;-74
2023/01/11 10:38:06;;;;;;;;;4.50;2.75;;;;;14.38;48.96;100696.66;146609;630;46012;-71
2023/01/11 10:41:18;;;;;;;;;7.75;6.75;;;;;14.48;49.35;100696.12;146606;569;46016;-71
2023/01/11 10:44:37;;;;;;;;;;;;;;;;;;;;;
2023/01/11 10:47:54;;;;;;;;;9.00;8.00;;;;;15.26;48.27;100684.81;146607;598;46012;-71
2023/01/11 10:51:24;;;;;;;;;;;;;;;;;;;;;
2023/01/11 10:54:34;;;;;;;;;1.00;1.00;;;;;16.00;46.16;100676.63;146603;595;46918;-71
2023/01/11 10:58:10;;;;;;;;;2.33;2.33;;;;;16.34;47.82;100668.84;146608;585;46010;-71
2023/01/11 11:01:38;;;;;;;;;4.00;4.00;;;;;14.20;47.91;100234.44;146602;565;46017;-72
2023/01/11 11:05:15;;;;;;;;;2.00;1.67;;;;;14.40;45.25;100235.03;146604;578;46012;-71
2023/01/11 11:08:48;;;;;;;;;12.00;12.00;;;;;17.03;43.78;100675.88;146603;624;46020;-71
2023/01/11 11:12:24;;;;;;;;;2.50;2.00;;;;;15.55;46.52;100405.25;146606;579;46020;-72
2023/01/11 11:15:50;;;;;;;;;1.67;0.67;;;;;17.18;46.58;100672.75;146607;573;45919;-71
2023/01/11 11:18:47;;;;;;;;;3.00;3.00;;;;;17.31;42.14;100676.53;146607;570;46020;-73
2023/01/11 11:21:45;;;;;;;;;5.00;4.00;;;;;17.44;43.01;100681.19;146606;587;46013;-72
2023/01/11 11:24:44;;;;;;;;;1.00;1.00;;;;;17.63;39.78;100684.22;146606;570;46010;-73
2023/01/11 11:28:04;;;;;;;;;;;;;;;;;;;;;
2023/01/11 11:31:13;;;;;;;;;2.00;2.00;;;;;17.94;42.47;100683.19;146607;660;46010;-72
2023/01/11 11:34:20;;;;;;;;;3.33;3.33;;;;;18.04;42.81;100679.91;146608;580;46012;-71
2023/01/11 11:37:52;;;;;;;;;2.67;2.67;;;;;18.05;41.86;100689.53;146608;604;46020;-71
2023/01/11 11:40:45;;;;;;;;;5.00;3.00;;;;;17.95;38.71;100671.84;146601;584;47916;-72
2023/01/11 11:43:34;;;;;;;;;2.00;2.00;;;;;17.85;36.14;100672.50;146699;579;46014;-71
2023/01/11 11:47:04;;;;;;;;;1.00;1.00;;;;;16.81;45.32;100503.38;146618;671;46016;-72
2023/01/11 11:50:36;;;;;;;;;0.00;0.00;;;;;17.73;43.02;100663.50;146617;577;48013;-72
2023/01/11 11:53:59;;;;;;;;;5.00;4.00;;;;;17.91;42.46;100680.50;146615;563;46014;-72
2023/01/11 11:57:02;;;;;;;;;1.00;1.00;;;;;17.91;38.67;100675.25;146622;587;46010;-72
2023/01/11 12:00:10;;;;;;;;;0.33;0.33;;;;;18.00;40.10;100673.69;146620;565;46012;-72
2023/01/11 12:03:40;;;;;;;;;2.00;1.67;;;;;18.08;38.27;100654.63;146621;576;46010;-71
2023/01/11 12:06:39;;;;;;;;;4.00;4.00;;;;;18.14;40.24;100662.59;146617;654;46915;-71
2023/01/11 12:10:03;;;;;;;;;3.00;2.33;;;;;18.16;41.30;100660.87;146622;613;46010;-72
2023/01/11 12:13:08;;;;;;;;;3.00;3.00;;;;;18.20;38.43;100657.47;146619;666;47012;-73
2023/01/11 12:16:21;;;;;;;;;7.00;6.25;;;;;18.23;36.92;100652.28;146616;615;47020;-73
2023/01/11 12:19:54;;;;;;;;;4.67;3.00;;;;;18.23;44.98;100626.91;146615;591;46016;-71
2023/01/11 12:22:52;;;;;;;;;3.33;3.00;;;;;18.48;38.07;100660.63;146622;599;47008;-72
2023/01/11 12:26:10;;;;;;;;;2.33;2.33;;;;;18.51;42.64;100637.03;146619;592;46012;-72
2023/01/11 12:29:31;;;;;;;;;1.00;1.00;;;;;18.56;42.42;100640.63;146620;660;46010;-71
2023/01/11 12:33:05;;;;;;;;;0.00;0.00;;;;;18.62;45.57;100657.34;146619;633;46012;-72
2023/01/11 12:36:27;;;;;;;;;0.67;0.67;;;;;18.63;40.14;100660.91;146619;602;46023;-72
2023/01/11 12:39:45;;;;;;;;;1.33;1.33;;;;;18.65;39.96;100654.78;146620;600;46035;-71
2023/01/11 12:43:26;;;;;;;;;2.00;2.00;;;;;18.80;44.48;100648.06;146625;569;46011;-73
2023/01/11 12:47:04;;;;;;;;;2.00;2.00;;;;;18.67;38.57;100665.34;146618;569;46016;-73
2023/01/11 12:51:05;;;;;;;;;2.33;2.00;;;;;18.12;40.82;100659.06;146624;573;46010;-72
2023/01/11 12:54:51;;;;;;;;;2.00;1.00;;;;;18.00;44.15;100684.19;146619;686;46014;-73
2023/01/11 12:58:20;;;;;;;;;1.00;1.00;;;;;18.24;43.36;100682.91;146626;673;46010;-73
2023/01/11 13:02:00;;;;;;;;;4.00;2.00;;;;;18.60;44.78;100685.34;146617;612;47016;-72
2023/01/11 13:05:36;;;;;;;;;4.67;4.00;;;;;19.16;44.27;100679.31;146625;579;46010;-72
2023/01/11 13:08:55;;;;;;;;;6.00;5.00;;;;;19.60;40.44;100672.06;146616;582;47916;-72
2023/01/11 13:12:52;;;;;;;;;5.00;4.67;;;;;19.97;43.86;100661.13;146625;568;46010;-72
2023/01/11 13:16:36;;;;;;;;;6.00;3.00;;;;;20.17;42.58;100671.91;146619;576;46016;-72
2023/01/11 13:19:54;;;;;;;;;8.00;7.33;;;;;20.29;40.99;100672.06;146624;571;46020;-72
2023/01/11 13:23:05;;;;;;;;;8.00;4.00;;;;;20.39;36.68;100675.66;146621;623;46012;-72
2023/01/11 13:26:02;;;;;;;;;5.33;5.33;;;;;20.41;35.95;100673.94;146626;575;46010;-72
2023/01/11 13:29:22;;;;;;;;;2.67;2.67;;;;;20.32;35.58;100680.00;146617;565;47016;-73
2023/01/11 13:32:32;;;;;;;;;1.67;1.67;;;;;19.49;39.33;100554.44;146626;678;46010;-73
2023/01/11 13:35:48;;;;;;;;;11.00;9.00;;;;;20.36;39.12;100684.41;146620;585;46035;-74
2023/01/11 13:39:29;;;;;;;;;3.67;2.00;;;;;20.19;38.99;100699.16;146622;565;46020;-72
2023/01/11 13:42:33;;;;;;;;;15.50;12.50;;;;;19.83;38.96;100693.44;146615;594;47013;-72
2023/01/11 13:45:57;;;;;;;;;17.00;16.75;;;;;19.47;40.91;100680.66;146619;618;46010;-72
2023/01/11 13:49:49;;;;;;;;;9.00;8.67;;;;;16.96;41.13;100303.78;146618;570;46012;-71
2023/01/11 13:53:39;;;;;;;;;14.67;14.67;;;;;18.53;39.70;100709.72;146622;606;46020;-72
2023/01/11 13:57:04;;;;;;;;;16.50;14.75;;;;;16.75;43.61;100482.25;146617;583;46017;-72
2023/01/11 14:00:08;;;;;;;;;19.25;18.25;;;;;17.94;42.87;100709.41;146616;619;46020;-72
2023/01/11 14:03:39;;;;;;;;;18.75;16.75;;;;;17.90;44.05;100723.31;146615;583;46016;-73
2023/01/11 14:07:21;;;;;;;;;3.00;3.00;;;;;17.79;45.18;100696.88;146621;570;46010;-73
2023/01/11 14:11:07;;;;;;;;;4.00;4.00;;;;;17.96;43.64;100712.97;146618;689;46033;-73
2023/01/11 14:14:47;;;;;;;;;5.67;5.67;;;;;16.95;46.37;100529.91;146621;639;47012;-72
2023/01/11 14:18:46;;;;;;;;;10.67;10.00;;;;;18.37;45.00;100732.16;146620;648;46016;-72
2023/01/11 14:22:31;;;;;;;;;6.00;5.67;;;;;18.34;44.54;100732.09;146621;576;46020;-72
2023/01/11 14:25:59;;;;;;;;;3.67;2.33;;;;;18.15;41.75;100736.09;146619;574;46016;-72
2023/01/11 14:29:30;;;;;;;;;4.67;4.00;;;;;17.81;44.21;100742.37;146622;641;47010;-72
2023/01/11 14:33:11;;;;;;;;;3.00;2.00;;;;;17.37;44.80;100751.81;146618;605;46014;-73
2023/01/11 14:36:37;;;;;;;;;9.33;9.33;;;;;16.91;45.51;100756.78;146625;583;46010;-71
2023/01/11 14:40:16;;;;;;;;;4.33;4.00;;;;;16.54;47.84;100757.47;146622;597;46016;-72
2023/01/11 14:44:10;;;;;;;;;11.50;10.25;;;;;16.11;46.46;100741.47;146615;662;47010;-71
2023/01/11 14:47:40;;;;;;;;;8.67;8.67;;;;;15.84;46.05;100767.69;146620;606;46016;-72
2023/01/11 14:51:14;;;;;;;;;2.00;1.00;;;;;15.45;44.47;100776.03;146624;579;46020;-71
2023/01/11 14:54:34;;;;;;;;;1.33;0.33;;;;;14.98;41.60;100761.38;146614;583;47016;-72
2023/01/11 14:58:18;;;;;;;;;2.67;2.67;;;;;14.45;46.23;100723.84;146624;592;47010;-72
2023/01/11 15:01:12;;;;;;;;;4.50;4.50;;;;;14.61;46.61;100785.31;146619;607;46012;-72
2023/01/11 15:04:04;;;;;;;;;7.00;6.75;;;;;14.54;46.46;100781.59;146622;633;46021;-72
2023/01/11 15:07:00;;;;;;;;;8.00;7.50;;;;;14.48;45.20;100794.38;146612;709;48914;-71
2023/01/11 15:10:07;;;;;;;;;1.50;0.00;;;;;14.40;46.63;100783.69;146619;668;46020;-71
2023/01/11 15:13:04;;;;;;;;;11.25;9.50;;;;;13.07;44.66;100576.25;146618;678;46915;-72
2023/01/11 15:19:37;;;;;;;;;9.50;7.75;;;;;14.13;47.64;100798.31;146614;566;47909;-72
2023/01/11 15:22:46;;;;;;;;;18.00;16.25;;;;;14.07;48.56;100805.06;146620;603;46032;-71
2023/01/11 15:25:50;;;;;;;;;20.00;18.75;;;;;14.06;46.80;100805.00;146617;620;46915;-71
2023/01/11 15:29:06;;;;;;;;;19.00;17.75;;;;;13.97;48.28;100796.84;146619;668;45020;-71
2023/01/11 15:32:27;;;;;;;;;57.50;42.00;;;;;13.80;48.67;100794.47;146621;682;46012;-71
2023/01/11 15:36:16;;;;;;;;;63.75;48.50;;;;;13.66;49.88;100803.44;146617;564;46021;-72
2023/01/11 15:39:17;;;;;;;;;76.67;66.67;;;;;13.65;49.74;100824.25;146613;589;46016;-71
2023/01/11 15:43:12;;;;;;;;;60.75;48.25;;;;;12.19;50.46;100590.03;146623;583;46021;-71
2023/01/11 15:47:06;;;;;;;;;;;;;;;;;;;;;
2023/01/11 15:51:11;;;;;;;;;;;;;;;;;;;;;
2023/01/11 15:54:46;;;;;;;;;61.00;47.25;;;;;12.78;52.23;100832.72;146615;615;46014;-71